sensor_id;sensor_type;location;lat;lon;timestamp;temperature;humidity
46590;DHT22;32313;48.722;9.362;2024-02-26T00:02:17;6.10;99.90
46590;DHT22;32313;48.722;9.362;2024-02-26T00:04:43;6.10;99.90
46590;DHT22;32313;48.722;9.362;2024-02-26T00:07:09;6.00;99.90
46590;DHT22;32313;48.722;9.362;2024-02-26T00:09:34;6.00;99.90
46590;DHT22;32313;48.722;9.362;2024-02-26T00:12:03;6.00;99.90
46590;DHT22;32313;48.722;9.362;2024-02-26T00:14:30;5.90;99.90
46590;DHT22;32313;48.722;9.362;2024-02-26T00:16:55;5.90;99.90
46590;DHT22;32313;48.722;9.362;2024-02-26T00:19:21;5.90;99.90
46590;DHT22;32313;48.722;9.362;2024-02-26T00:21:47;5.90;99.90
46590;DHT22;32313;48.722;9.362;2024-02-26T00:24:12;5.90;99.90
46590;DHT22;32313;48.722;9.362;2024-02-26T00:26:38;5.80;99.90
46590;DHT22;32313;48.722;9.362;2024-02-26T00:29:04;5.70;99.90
46590;DHT22;32313;48.722;9.362;2024-02-26T00:31:30;5.60;99.90
46590;DHT22;32313;48.722;9.362;2024-02-26T00:33:56;5.50;99.90
46590;DHT22;32313;48.722;9.362;2024-02-26T00:36:21;5.50;99.90
46590;DHT22;32313;48.722;9.362;2024-02-26T00:38:47;5.40;99.90
46590;DHT22;32313;48.722;9.362;2024-02-26T00:41:20;5.30;99.90
46590;DHT22;32313;48.722;9.362;2024-02-26T00:43:46;5.40;99.90
46590;DHT22;32313;48.722;9.362;2024-02-26T00:46:12;5.30;99.90
46590;DHT22;32313;48.722;9.362;2024-02-26T00:48:37;5.30;99.90
46590;DHT22;32313;48.722;9.362;2024-02-26T00:51:04;5.30;99.90
46590;DHT22;32313;48.722;9.362;2024-02-26T00:53:33;5.30;99.90
46590;DHT22;32313;48.722;9.362;2024-02-26T00:55:59;5.30;99.90
46590;DHT22;32313;48.722;9.362;2024-02-26T00:58:25;5.30;99.90
46590;DHT22;32313;48.722;9.362;2024-02-26T01:00:51;5.30;99.90
46590;DHT22;32313;48.722;9.362;2024-02-26T01:03:17;5.30;99.90
46590;DHT22;32313;48.722;9.362;2024-02-26T01:05:43;5.30;99.90
46590;DHT22;32313;48.722;9.362;2024-02-26T01:08:09;5.30;99.90
46590;DHT22;32313;48.722;9.362;2024-02-26T01:10:35;5.40;99.90
46590;DHT22;32313;48.722;9.362;2024-02-26T01:13:01;5.30;99.90
46590;DHT22;32313;48.722;9.362;2024-02-26T01:15:27;5.30;99.90
46590;DHT22;32313;48.722;9.362;2024-02-26T01:17:53;5.40;99.90
46590;DHT22;32313;48.722;9.362;2024-02-26T01:20:19;5.40;99.90
46590;DHT22;32313;48.722;9.362;2024-02-26T01:22:44;5.40;99.90
46590;DHT22;32313;48.722;9.362;2024-02-26T01:25:10;5.50;99.90
46590;DHT22;32313;48.722;9.362;2024-02-26T01:27:39;5.60;99.90
46590;DHT22;32313;48.722;9.362;2024-02-26T01:30:07;5.60;99.90
46590;DHT22;32313;48.722;9.362;2024-02-26T01:32:33;5.60;99.90
46590;DHT22;32313;48.722;9.362;2024-02-26T01:34:58;5.60;99.90
46590;DHT22;32313;48.722;9.362;2024-02-26T01:37:25;5.60;99.90
46590;DHT22;32313;48.722;9.362;2024-02-26T01:39:51;5.60;99.90
46590;DHT22;32313;48.722;9.362;2024-02-26T01:42:16;5.50;99.90
46590;DHT22;32313;48.722;9.362;2024-02-26T01:44:42;5.40;99.90
46590;DHT22;32313;48.722;9.362;2024-02-26T01:47:11;5.40;99.90
46590;DHT22;32313;48.722;9.362;2024-02-26T01:49:37;5.30;99.90
46590;DHT22;32313;48.722;9.362;2024-02-26T01:52:05;5.30;99.90
46590;DHT22;32313;48.722;9.362;2024-02-26T01:54:34;5.30;99.90
46590;DHT22;32313;48.722;9.362;2024-02-26T01:57:00;5.40;99.90
46590;DHT22;32313;48.722;9.362;2024-02-26T01:59:27;5.40;99.90
46590;DHT22;32313;48.722;9.362;2024-02-26T02:01:56;5.40;99.90
46590;DHT22;32313;48.722;9.362;2024-02-26T02:04:23;5.40;99.90
46590;DHT22;32313;48.722;9.362;2024-02-26T02:06:50;5.30;99.90
46590;DHT22;32313;48.722;9.362;2024-02-26T02:09:18;5.30;99.90
46590;DHT22;32313;48.722;9.362;2024-02-26T02:11:43;5.30;99.90
46590;DHT22;32313;48.722;9.362;2024-02-26T02:14:10;5.30;99.90
46590;DHT22;32313;48.722;9.362;2024-02-26T02:16:35;5.30;99.90
46590;DHT22;32313;48.722;9.362;2024-02-26T02:19:01;5.30;99.90
46590;DHT22;32313;48.722;9.362;2024-02-26T02:21:27;5.30;99.90
46590;DHT22;32313;48.722;9.362;2024-02-26T02:23:52;5.40;99.90
46590;DHT22;32313;48.722;9.362;2024-02-26T02:26:18;5.40;99.90
46590;DHT22;32313;48.722;9.362;2024-02-26T02:28:45;5.50;99.90
46590;DHT22;32313;48.722;9.362;2024-02-26T02:31:11;5.50;99.90
46590;DHT22;32313;48.722;9.362;2024-02-26T02:33:37;5.50;99.90
46590;DHT22;32313;48.722;9.362;2024-02-26T02:36:04;5.50;99.90
46590;DHT22;32313;48.722;9.362;2024-02-26T02:39:02;5.50;99.90
46590;DHT22;32313;48.722;9.362;2024-02-26T02:41:28;5.50;99.90
46590;DHT22;32313;48.722;9.362;2024-02-26T02:43:55;5.50;99.90
46590;DHT22;32313;48.722;9.362;2024-02-26T02:46:21;5.50;99.90
46590;DHT22;32313;48.722;9.362;2024-02-26T02:48:47;5.50;99.90
46590;DHT22;32313;48.722;9.362;2024-02-26T02:51:12;5.60;99.90
46590;DHT22;32313;48.722;9.362;2024-02-26T02:53:38;5.70;99.90
46590;DHT22;32313;48.722;9.362;2024-02-26T02:56:04;5.70;99.90
46590;DHT22;32313;48.722;9.362;2024-02-26T02:58:30;5.80;99.90
46590;DHT22;32313;48.722;9.362;2024-02-26T03:00:55;5.90;99.90
46590;DHT22;32313;48.722;9.362;2024-02-26T03:03:21;5.90;99.90
46590;DHT22;32313;48.722;9.362;2024-02-26T03:05:49;5.90;99.90
46590;DHT22;32313;48.722;9.362;2024-02-26T03:08:15;5.80;99.90
46590;DHT22;32313;48.722;9.362;2024-02-26T03:10:40;5.80;99.90
46590;DHT22;32313;48.722;9.362;2024-02-26T03:13:08;5.70;99.90
46590;DHT22;32313;48.722;9.362;2024-02-26T03:15:33;5.70;99.90
46590;DHT22;32313;48.722;9.362;2024-02-26T03:17:59;5.70;99.90
46590;DHT22;32313;48.722;9.362;2024-02-26T03:20:28;5.70;99.90
46590;DHT22;32313;48.722;9.362;2024-02-26T03:22:53;5.70;99.90
46590;DHT22;32313;48.722;9.362;2024-02-26T03:25:20;5.70;99.90
46590;DHT22;32313;48.722;9.362;2024-02-26T03:27:45;5.70;99.90
46590;DHT22;32313;48.722;9.362;2024-02-26T03:30:11;5.70;99.90
46590;DHT22;32313;48.722;9.362;2024-02-26T03:32:37;5.60;99.90
46590;DHT22;32313;48.722;9.362;2024-02-26T03:35:02;5.60;99.90
46590;DHT22;32313;48.722;9.362;2024-02-26T03:37:28;5.60;99.90
46590;DHT22;32313;48.722;9.362;2024-02-26T03:39:54;5.60;99.90
46590;DHT22;32313;48.722;9.362;2024-02-26T03:42:19;5.60;99.90
46590;DHT22;32313;48.722;9.362;2024-02-26T03:44:45;5.60;99.90
46590;DHT22;32313;48.722;9.362;2024-02-26T03:47:11;5.60;99.90
46590;DHT22;32313;48.722;9.362;2024-02-26T03:49:36;5.60;99.90
46590;DHT22;32313;48.722;9.362;2024-02-26T03:52:02;5.60;99.90
46590;DHT22;32313;48.722;9.362;2024-02-26T03:54:28;5.60;99.90
46590;DHT22;32313;48.722;9.362;2024-02-26T03:56:53;5.60;99.90
46590;DHT22;32313;48.722;9.362;2024-02-26T03:59:19;5.60;99.90
46590;DHT22;32313;48.722;9.362;2024-02-26T04:01:48;5.60;99.90
46590;DHT22;32313;48.722;9.362;2024-02-26T04:04:15;5.50;99.90
46590;DHT22;32313;48.722;9.362;2024-02-26T04:06:44;5.50;99.90
46590;DHT22;32313;48.722;9.362;2024-02-26T04:09:11;5.40;99.90
46590;DHT22;32313;48.722;9.362;2024-02-26T04:11:36;5.40;99.90
46590;DHT22;32313;48.722;9.362;2024-02-26T04:14:02;5.40;99.90
46590;DHT22;32313;48.722;9.362;2024-02-26T04:16:35;5.40;99.90
46590;DHT22;32313;48.722;9.362;2024-02-26T04:19:04;5.50;99.90
46590;DHT22;32313;48.722;9.362;2024-02-26T04:21:29;5.60;99.90
46590;DHT22;32313;48.722;9.362;2024-02-26T04:23:55;5.70;99.90
46590;DHT22;32313;48.722;9.362;2024-02-26T04:26:21;5.70;99.90
46590;DHT22;32313;48.722;9.362;2024-02-26T04:28:47;5.70;99.90
46590;DHT22;32313;48.722;9.362;2024-02-26T04:31:13;5.70;99.90
46590;DHT22;32313;48.722;9.362;2024-02-26T04:33:38;5.80;99.90
46590;DHT22;32313;48.722;9.362;2024-02-26T04:36:04;5.80;99.90
46590;DHT22;32313;48.722;9.362;2024-02-26T04:38:30;5.80;99.90
46590;DHT22;32313;48.722;9.362;2024-02-26T04:40:56;5.90;99.90
46590;DHT22;32313;48.722;9.362;2024-02-26T04:43:21;5.90;99.90
46590;DHT22;32313;48.722;9.362;2024-02-26T04:45:47;5.90;99.90
46590;DHT22;32313;48.722;9.362;2024-02-26T04:48:13;6.00;99.90
46590;DHT22;32313;48.722;9.362;2024-02-26T04:50:39;6.10;99.90
46590;DHT22;32313;48.722;9.362;2024-02-26T04:53:04;6.00;99.90
46590;DHT22;32313;48.722;9.362;2024-02-26T04:55:30;6.10;99.90
46590;DHT22;32313;48.722;9.362;2024-02-26T04:57:56;6.00;99.90
46590;DHT22;32313;48.722;9.362;2024-02-26T05:00:21;6.00;99.90
46590;DHT22;32313;48.722;9.362;2024-02-26T05:02:47;6.00;99.90
46590;DHT22;32313;48.722;9.362;2024-02-26T05:05:13;5.90;99.90
46590;DHT22;32313;48.722;9.362;2024-02-26T05:07:42;5.90;99.90
46590;DHT22;32313;48.722;9.362;2024-02-26T05:10:09;5.90;99.90
46590;DHT22;32313;48.722;9.362;2024-02-26T05:12:34;5.90;99.90
46590;DHT22;32313;48.722;9.362;2024-02-26T05:15:02;5.90;99.90
46590;DHT22;32313;48.722;9.362;2024-02-26T05:17:28;5.90;99.90
46590;DHT22;32313;48.722;9.362;2024-02-26T05:19:53;5.90;99.90
46590;DHT22;32313;48.722;9.362;2024-02-26T05:22:19;5.90;99.90
46590;DHT22;32313;48.722;9.362;2024-02-26T05:24:45;6.00;99.90
46590;DHT22;32313;48.722;9.362;2024-02-26T05:27:10;6.00;99.90
46590;DHT22;32313;48.722;9.362;2024-02-26T05:29:37;6.00;99.90
46590;DHT22;32313;48.722;9.362;2024-02-26T05:32:04;6.00;99.90
46590;DHT22;32313;48.722;9.362;2024-02-26T05:34:30;5.90;99.90
46590;DHT22;32313;48.722;9.362;2024-02-26T05:36:56;5.90;99.90
46590;DHT22;32313;48.722;9.362;2024-02-26T05:39:21;5.80;99.90
46590;DHT22;32313;48.722;9.362;2024-02-26T05:41:47;5.80;99.90
46590;DHT22;32313;48.722;9.362;2024-02-26T05:44:14;5.70;99.90
46590;DHT22;32313;48.722;9.362;2024-02-26T05:46:41;5.70;99.90
46590;DHT22;32313;48.722;9.362;2024-02-26T05:49:07;5.70;99.90
46590;DHT22;32313;48.722;9.362;2024-02-26T05:51:33;5.60;99.90
46590;DHT22;32313;48.722;9.362;2024-02-26T05:53:59;5.60;99.90
46590;DHT22;32313;48.722;9.362;2024-02-26T05:56:24;5.60;99.90
46590;DHT22;32313;48.722;9.362;2024-02-26T05:58:50;5.60;99.90
46590;DHT22;32313;48.722;9.362;2024-02-26T06:01:17;5.60;99.90
46590;DHT22;32313;48.722;9.362;2024-02-26T06:03:43;5.60;99.90
46590;DHT22;32313;48.722;9.362;2024-02-26T06:06:10;5.60;99.90
46590;DHT22;32313;48.722;9.362;2024-02-26T06:08:36;5.60;99.90
46590;DHT22;32313;48.722;9.362;2024-02-26T06:11:08;5.50;99.90
46590;DHT22;32313;48.722;9.362;2024-02-26T06:13:34;5.40;99.90
46590;DHT22;32313;48.722;9.362;2024-02-26T06:16:00;5.30;99.90
46590;DHT22;32313;48.722;9.362;2024-02-26T06:18:26;5.20;99.90
46590;DHT22;32313;48.722;9.362;2024-02-26T06:20:51;5.00;99.90
46590;DHT22;32313;48.722;9.362;2024-02-26T06:23:17;4.90;99.90
46590;DHT22;32313;48.722;9.362;2024-02-26T06:25:43;4.90;99.90
46590;DHT22;32313;48.722;9.362;2024-02-26T06:28:09;4.80;99.90
46590;DHT22;32313;48.722;9.362;2024-02-26T06:30:34;4.80;99.90
46590;DHT22;32313;48.722;9.362;2024-02-26T06:33:00;4.80;99.90
46590;DHT22;32313;48.722;9.362;2024-02-26T06:35:27;4.80;99.90
46590;DHT22;32313;48.722;9.362;2024-02-26T06:37:52;4.80;99.90
46590;DHT22;32313;48.722;9.362;2024-02-26T06:40:21;4.80;99.90
46590;DHT22;32313;48.722;9.362;2024-02-26T06:42:47;4.80;99.90
46590;DHT22;32313;48.722;9.362;2024-02-26T06:45:13;4.80;99.90
46590;DHT22;32313;48.722;9.362;2024-02-26T06:47:38;4.80;99.90
46590;DHT22;32313;48.722;9.362;2024-02-26T06:50:04;4.80;99.90
46590;DHT22;32313;48.722;9.362;2024-02-26T06:52:30;4.80;99.90
46590;DHT22;32313;48.722;9.362;2024-02-26T06:54:56;4.80;99.90
46590;DHT22;32313;48.722;9.362;2024-02-26T06:57:22;4.80;99.90
46590;DHT22;32313;48.722;9.362;2024-02-26T06:59:47;4.80;99.90
46590;DHT22;32313;48.722;9.362;2024-02-26T07:02:14;4.90;99.90
46590;DHT22;32313;48.722;9.362;2024-02-26T07:04:40;5.00;99.90
46590;DHT22;32313;48.722;9.362;2024-02-26T07:07:07;5.00;99.90
46590;DHT22;32313;48.722;9.362;2024-02-26T07:09:33;5.10;99.90
46590;DHT22;32313;48.722;9.362;2024-02-26T07:11:58;5.30;99.90
46590;DHT22;32313;48.722;9.362;2024-02-26T07:14:24;5.40;99.90
46590;DHT22;32313;48.722;9.362;2024-02-26T07:16:53;5.50;99.90
46590;DHT22;32313;48.722;9.362;2024-02-26T07:19:18;5.50;99.90
46590;DHT22;32313;48.722;9.362;2024-02-26T07:21:44;5.60;99.90
46590;DHT22;32313;48.722;9.362;2024-02-26T07:24:09;5.70;99.90
46590;DHT22;32313;48.722;9.362;2024-02-26T07:26:35;5.70;99.90
46590;DHT22;32313;48.722;9.362;2024-02-26T07:29:01;5.80;99.90
46590;DHT22;32313;48.722;9.362;2024-02-26T07:31:26;5.80;99.90
46590;DHT22;32313;48.722;9.362;2024-02-26T07:33:52;5.90;99.90
46590;DHT22;32313;48.722;9.362;2024-02-26T07:36:18;5.90;99.90
46590;DHT22;32313;48.722;9.362;2024-02-26T07:38:44;5.90;99.90
46590;DHT22;32313;48.722;9.362;2024-02-26T07:41:11;6.00;99.90
46590;DHT22;32313;48.722;9.362;2024-02-26T07:43:37;6.00;99.90
46590;DHT22;32313;48.722;9.362;2024-02-26T07:46:02;6.00;99.90
46590;DHT22;32313;48.722;9.362;2024-02-26T07:48:28;6.10;99.90
46590;DHT22;32313;48.722;9.362;2024-02-26T07:50:54;6.10;99.90
46590;DHT22;32313;48.722;9.362;2024-02-26T07:53:19;6.10;99.90
46590;DHT22;32313;48.722;9.362;2024-02-26T07:55:45;6.20;99.90
46590;DHT22;32313;48.722;9.362;2024-02-26T07:58:11;6.20;99.90
46590;DHT22;32313;48.722;9.362;2024-02-26T08:00:36;6.30;99.90
46590;DHT22;32313;48.722;9.362;2024-02-26T08:03:02;6.30;99.90
46590;DHT22;32313;48.722;9.362;2024-02-26T08:05:28;6.30;99.90
46590;DHT22;32313;48.722;9.362;2024-02-26T08:08:00;6.40;99.90
46590;DHT22;32313;48.722;9.362;2024-02-26T08:10:25;6.50;99.90
46590;DHT22;32313;48.722;9.362;2024-02-26T08:12:51;6.60;99.90
46590;DHT22;32313;48.722;9.362;2024-02-26T08:15:17;6.60;99.90
46590;DHT22;32313;48.722;9.362;2024-02-26T08:17:44;6.70;99.90
46590;DHT22;32313;48.722;9.362;2024-02-26T08:20:10;6.80;99.90
46590;DHT22;32313;48.722;9.362;2024-02-26T08:22:36;6.80;99.90
46590;DHT22;32313;48.722;9.362;2024-02-26T08:25:02;6.90;99.90
46590;DHT22;32313;48.722;9.362;2024-02-26T08:27:32;7.00;99.90
46590;DHT22;32313;48.722;9.362;2024-02-26T08:29:57;7.00;99.90
46590;DHT22;32313;48.722;9.362;2024-02-26T08:32:24;7.10;99.90
46590;DHT22;32313;48.722;9.362;2024-02-26T08:34:50;7.10;99.90
46590;DHT22;32313;48.722;9.362;2024-02-26T08:37:15;7.10;99.90
46590;DHT22;32313;48.722;9.362;2024-02-26T08:39:41;7.20;99.90
46590;DHT22;32313;48.722;9.362;2024-02-26T08:42:07;7.20;99.90
46590;DHT22;32313;48.722;9.362;2024-02-26T08:44:32;7.30;99.90
46590;DHT22;32313;48.722;9.362;2024-02-26T08:46:58;7.40;99.90
46590;DHT22;32313;48.722;9.362;2024-02-26T08:49:24;7.50;99.90
46590;DHT22;32313;48.722;9.362;2024-02-26T08:51:50;7.60;99.90
46590;DHT22;32313;48.722;9.362;2024-02-26T08:54:15;7.70;99.90
46590;DHT22;32313;48.722;9.362;2024-02-26T08:56:41;7.80;99.90
46590;DHT22;32313;48.722;9.362;2024-02-26T08:59:07;8.00;99.90
46590;DHT22;32313;48.722;9.362;2024-02-26T09:01:32;8.10;99.90
46590;DHT22;32313;48.722;9.362;2024-02-26T09:03:58;8.20;99.90
46590;DHT22;32313;48.722;9.362;2024-02-26T09:06:25;8.30;99.90
46590;DHT22;32313;48.722;9.362;2024-02-26T09:08:51;8.50;99.90
46590;DHT22;32313;48.722;9.362;2024-02-26T09:11:16;8.60;99.90
46590;DHT22;32313;48.722;9.362;2024-02-26T09:13:42;8.70;99.90
46590;DHT22;32313;48.722;9.362;2024-02-26T09:16:08;8.70;99.90
46590;DHT22;32313;48.722;9.362;2024-02-26T09:18:33;8.80;99.90
46590;DHT22;32313;48.722;9.362;2024-02-26T09:20:59;8.90;99.90
46590;DHT22;32313;48.722;9.362;2024-02-26T09:23:25;8.90;99.90
46590;DHT22;32313;48.722;9.362;2024-02-26T09:25:50;9.00;99.90
46590;DHT22;32313;48.722;9.362;2024-02-26T09:28:16;9.10;99.90
46590;DHT22;32313;48.722;9.362;2024-02-26T09:30:43;9.20;99.90
46590;DHT22;32313;48.722;9.362;2024-02-26T09:33:09;9.20;99.90
46590;DHT22;32313;48.722;9.362;2024-02-26T09:35:35;9.30;99.90
46590;DHT22;32313;48.722;9.362;2024-02-26T09:38:00;9.30;99.90
46590;DHT22;32313;48.722;9.362;2024-02-26T09:40:26;9.30;99.90
46590;DHT22;32313;48.722;9.362;2024-02-26T09:42:59;9.30;99.90
46590;DHT22;32313;48.722;9.362;2024-02-26T09:45:26;9.30;99.90
46590;DHT22;32313;48.722;9.362;2024-02-26T09:47:55;9.30;99.90
46590;DHT22;32313;48.722;9.362;2024-02-26T09:50:22;9.30;99.90
46590;DHT22;32313;48.722;9.362;2024-02-26T09:52:49;9.30;99.90
46590;DHT22;32313;48.722;9.362;2024-02-26T09:55:18;9.30;99.90
46590;DHT22;32313;48.722;9.362;2024-02-26T09:57:48;9.30;99.90
46590;DHT22;32313;48.722;9.362;2024-02-26T10:00:21;9.30;99.90
46590;DHT22;32313;48.722;9.362;2024-02-26T10:02:47;9.30;99.90
46590;DHT22;32313;48.722;9.362;2024-02-26T10:05:16;9.40;99.90
46590;DHT22;32313;48.722;9.362;2024-02-26T10:07:44;9.60;99.90
46590;DHT22;32313;48.722;9.362;2024-02-26T10:10:10;9.80;99.90
46590;DHT22;32313;48.722;9.362;2024-02-26T10:12:36;10.00;99.90
46590;DHT22;32313;48.722;9.362;2024-02-26T10:15:02;10.40;99.90
46590;DHT22;32313;48.722;9.362;2024-02-26T10:17:28;10.80;99.90
46590;DHT22;32313;48.722;9.362;2024-02-26T10:19:54;11.20;99.90
46590;DHT22;32313;48.722;9.362;2024-02-26T10:22:22;11.50;99.90
46590;DHT22;32313;48.722;9.362;2024-02-26T10:24:48;11.80;99.90
46590;DHT22;32313;48.722;9.362;2024-02-26T10:27:15;11.80;99.90
46590;DHT22;32313;48.722;9.362;2024-02-26T10:29:40;11.80;99.90
46590;DHT22;32313;48.722;9.362;2024-02-26T10:32:09;11.70;99.90
46590;DHT22;32313;48.722;9.362;2024-02-26T10:34:35;11.80;99.90
46590;DHT22;32313;48.722;9.362;2024-02-26T10:37:05;12.20;99.90
46590;DHT22;32313;48.722;9.362;2024-02-26T10:39:30;12.40;99.90
46590;DHT22;32313;48.722;9.362;2024-02-26T10:41:56;12.90;99.90
46590;DHT22;32313;48.722;9.362;2024-02-26T10:44:22;13.50;99.90
46590;DHT22;32313;48.722;9.362;2024-02-26T10:46:48;14.30;99.90
46590;DHT22;32313;48.722;9.362;2024-02-26T10:49:17;14.80;99.90
46590;DHT22;32313;48.722;9.362;2024-02-26T10:51:45;15.30;99.90
46590;DHT22;32313;48.722;9.362;2024-02-26T10:54:16;15.10;99.90
46590;DHT22;32313;48.722;9.362;2024-02-26T10:56:42;15.00;99.90
46590;DHT22;32313;48.722;9.362;2024-02-26T10:59:12;14.70;99.90
46590;DHT22;32313;48.722;9.362;2024-02-26T11:01:39;14.50;99.90
46590;DHT22;32313;48.722;9.362;2024-02-26T11:04:08;14.40;99.90
46590;DHT22;32313;48.722;9.362;2024-02-26T11:06:34;14.30;99.90
46590;DHT22;32313;48.722;9.362;2024-02-26T11:09:02;14.10;99.90
46590;DHT22;32313;48.722;9.362;2024-02-26T11:11:31;14.10;99.90
46590;DHT22;32313;48.722;9.362;2024-02-26T11:13:57;13.90;99.90
46590;DHT22;32313;48.722;9.362;2024-02-26T11:16:26;13.70;99.90
46590;DHT22;32313;48.722;9.362;2024-02-26T11:18:53;13.70;99.90
46590;DHT22;32313;48.722;9.362;2024-02-26T11:21:21;13.80;99.90
46590;DHT22;32313;48.722;9.362;2024-02-26T11:23:56;13.80;99.90
46590;DHT22;32313;48.722;9.362;2024-02-26T11:26:23;13.80;99.90
46590;DHT22;32313;48.722;9.362;2024-02-26T11:28:50;13.60;99.90
46590;DHT22;32313;48.722;9.362;2024-02-26T11:31:17;13.50;99.90
46590;DHT22;32313;48.722;9.362;2024-02-26T11:33:46;13.40;99.90
46590;DHT22;32313;48.722;9.362;2024-02-26T11:36:12;13.40;99.90
46590;DHT22;32313;48.722;9.362;2024-02-26T11:38:39;13.50;99.90
46590;DHT22;32313;48.722;9.362;2024-02-26T11:41:06;13.70;99.90
46590;DHT22;32313;48.722;9.362;2024-02-26T11:43:52;14.00;99.90
46590;DHT22;32313;48.722;9.362;2024-02-26T11:48:51;14.20;99.90
46590;DHT22;32313;48.722;9.362;2024-02-26T11:51:17;14.20;99.90
46590;DHT22;32313;48.722;9.362;2024-02-26T11:53:46;14.20;99.90
46590;DHT22;32313;48.722;9.362;2024-02-26T11:58:42;13.80;99.90
46590;DHT22;32313;48.722;9.362;2024-02-26T12:01:46;13.80;99.90
46590;DHT22;32313;48.722;9.362;2024-02-26T12:04:21;13.80;99.90
46590;DHT22;32313;48.722;9.362;2024-02-26T12:09:33;14.10;99.90
46590;DHT22;32313;48.722;9.362;2024-02-26T12:12:03;14.50;99.90
46590;DHT22;32313;48.722;9.362;2024-02-26T12:14:29;14.70;99.90
46590;DHT22;32313;48.722;9.362;2024-02-26T12:16:58;14.90;99.90
46590;DHT22;32313;48.722;9.362;2024-02-26T12:19:24;15.40;99.90
46590;DHT22;32313;48.722;9.362;2024-02-26T12:21:53;16.00;99.90
46590;DHT22;32313;48.722;9.362;2024-02-26T12:24:20;16.60;99.90
46590;DHT22;32313;48.722;9.362;2024-02-26T12:26:46;16.90;99.90
46590;DHT22;32313;48.722;9.362;2024-02-26T12:29:12;17.10;99.90
46590;DHT22;32313;48.722;9.362;2024-02-26T12:31:40;17.30;99.80
46590;DHT22;32313;48.722;9.362;2024-02-26T12:34:06;17.30;98.40
46590;DHT22;32313;48.722;9.362;2024-02-26T12:36:35;17.00;98.00
46590;DHT22;32313;48.722;9.362;2024-02-26T12:39:02;16.90;98.10
46590;DHT22;32313;48.722;9.362;2024-02-26T12:41:28;16.70;98.30
46590;DHT22;32313;48.722;9.362;2024-02-26T12:43:57;16.60;97.60
46590;DHT22;32313;48.722;9.362;2024-02-26T12:46:24;16.60;96.60
46590;DHT22;32313;48.722;9.362;2024-02-26T12:48:49;16.60;97.30
46590;DHT22;32313;48.722;9.362;2024-02-26T12:51:16;16.40;96.30
46590;DHT22;32313;48.722;9.362;2024-02-26T12:53:43;16.50;96.30
46590;DHT22;32313;48.722;9.362;2024-02-26T12:56:10;16.60;95.90
46590;DHT22;32313;48.722;9.362;2024-02-26T12:58:39;17.30;94.90
46590;DHT22;32313;48.722;9.362;2024-02-26T13:01:05;18.00;93.90
46590;DHT22;32313;48.722;9.362;2024-02-26T13:03:33;18.50;94.00
46590;DHT22;32313;48.722;9.362;2024-02-26T13:06:00;18.70;93.20
46590;DHT22;32313;48.722;9.362;2024-02-26T13:08:26;18.50;92.10
46590;DHT22;32313;48.722;9.362;2024-02-26T13:10:52;17.70;92.00
46590;DHT22;32313;48.722;9.362;2024-02-26T13:13:18;17.20;92.00
46590;DHT22;32313;48.722;9.362;2024-02-26T13:15:45;16.90;92.90
46590;DHT22;32313;48.722;9.362;2024-02-26T13:18:13;16.60;92.80
46590;DHT22;32313;48.722;9.362;2024-02-26T13:20:39;16.30;92.60
46590;DHT22;32313;48.722;9.362;2024-02-26T13:23:11;16.10;93.90
46590;DHT22;32313;48.722;9.362;2024-02-26T13:25:37;16.00;94.40
46590;DHT22;32313;48.722;9.362;2024-02-26T13:28:15;15.80;93.50
46590;DHT22;32313;48.722;9.362;2024-02-26T13:30:56;15.70;93.10
46590;DHT22;32313;48.722;9.362;2024-02-26T13:33:23;15.40;93.40
46590;DHT22;32313;48.722;9.362;2024-02-26T13:35:49;15.50;94.10
46590;DHT22;32313;48.722;9.362;2024-02-26T13:38:15;15.60;94.40
46590;DHT22;32313;48.722;9.362;2024-02-26T13:40:41;15.70;94.70
46590;DHT22;32313;48.722;9.362;2024-02-26T13:43:12;15.80;94.50
46590;DHT22;32313;48.722;9.362;2024-02-26T13:45:39;15.80;93.90
46590;DHT22;32313;48.722;9.362;2024-02-26T13:48:06;15.80;94.50
46590;DHT22;32313;48.722;9.362;2024-02-26T13:50:33;15.70;94.80
46590;DHT22;32313;48.722;9.362;2024-02-26T13:52:58;15.50;94.60
46590;DHT22;32313;48.722;9.362;2024-02-26T13:55:27;15.30;94.80
46590;DHT22;32313;48.722;9.362;2024-02-26T13:57:58;15.20;95.10
46590;DHT22;32313;48.722;9.362;2024-02-26T14:00:24;15.20;95.00
46590;DHT22;32313;48.722;9.362;2024-02-26T14:02:50;15.30;95.60
46590;DHT22;32313;48.722;9.362;2024-02-26T14:05:16;15.70;94.30
46590;DHT22;32313;48.722;9.362;2024-02-26T14:07:42;15.90;94.20
46590;DHT22;32313;48.722;9.362;2024-02-26T14:10:09;16.20;93.50
46590;DHT22;32313;48.722;9.362;2024-02-26T14:12:37;16.30;93.60
46590;DHT22;32313;48.722;9.362;2024-02-26T14:15:07;16.60;93.40
46590;DHT22;32313;48.722;9.362;2024-02-26T14:17:33;17.00;92.40
46590;DHT22;32313;48.722;9.362;2024-02-26T14:19:59;17.50;92.20
46590;DHT22;32313;48.722;9.362;2024-02-26T14:22:25;18.00;91.80
46590;DHT22;32313;48.722;9.362;2024-02-26T14:24:52;18.30;91.70
46590;DHT22;32313;48.722;9.362;2024-02-26T14:27:18;18.20;90.40
46590;DHT22;32313;48.722;9.362;2024-02-26T14:29:46;17.70;90.80
46590;DHT22;32313;48.722;9.362;2024-02-26T14:32:12;17.50;91.50
46590;DHT22;32313;48.722;9.362;2024-02-26T14:34:38;17.90;90.50
46590;DHT22;32313;48.722;9.362;2024-02-26T14:37:04;18.30;90.20
46590;DHT22;32313;48.722;9.362;2024-02-26T14:39:35;19.10;89.50
46590;DHT22;32313;48.722;9.362;2024-02-26T14:42:03;19.20;87.40
46590;DHT22;32313;48.722;9.362;2024-02-26T14:44:28;18.60;88.70
46590;DHT22;32313;48.722;9.362;2024-02-26T14:46:54;18.10;88.90
46590;DHT22;32313;48.722;9.362;2024-02-26T14:49:20;17.60;89.40
46590;DHT22;32313;48.722;9.362;2024-02-26T14:51:45;17.10;89.00
46590;DHT22;32313;48.722;9.362;2024-02-26T14:54:12;16.70;90.00
46590;DHT22;32313;48.722;9.362;2024-02-26T14:56:38;16.20;90.50
46590;DHT22;32313;48.722;9.362;2024-02-26T14:59:04;15.80;91.10
46590;DHT22;32313;48.722;9.362;2024-02-26T15:01:30;15.50;91.80
46590;DHT22;32313;48.722;9.362;2024-02-26T15:03:56;15.30;91.70
46590;DHT22;32313;48.722;9.362;2024-02-26T15:06:23;15.00;92.10
46590;DHT22;32313;48.722;9.362;2024-02-26T15:08:48;14.80;92.60
46590;DHT22;32313;48.722;9.362;2024-02-26T15:11:14;14.60;92.80
46590;DHT22;32313;48.722;9.362;2024-02-26T15:13:41;14.40;93.10
46590;DHT22;32313;48.722;9.362;2024-02-26T15:16:06;14.30;93.40
46590;DHT22;32313;48.722;9.362;2024-02-26T15:18:32;14.20;93.80
46590;DHT22;32313;48.722;9.362;2024-02-26T15:20:58;14.10;94.10
46590;DHT22;32313;48.722;9.362;2024-02-26T15:23:24;14.00;94.40
46590;DHT22;32313;48.722;9.362;2024-02-26T15:25:49;13.80;94.70
46590;DHT22;32313;48.722;9.362;2024-02-26T15:28:15;13.70;95.00
46590;DHT22;32313;48.722;9.362;2024-02-26T15:30:41;13.60;95.20
46590;DHT22;32313;48.722;9.362;2024-02-26T15:33:07;13.40;95.60
46590;DHT22;32313;48.722;9.362;2024-02-26T15:35:34;13.30;96.10
46590;DHT22;32313;48.722;9.362;2024-02-26T15:38:00;13.20;96.70
46590;DHT22;32313;48.722;9.362;2024-02-26T15:40:25;13.10;97.00
46590;DHT22;32313;48.722;9.362;2024-02-26T15:42:51;13.00;97.40
46590;DHT22;32313;48.722;9.362;2024-02-26T15:45:17;12.90;98.00